Time;durP1;ratioP1;P1;durP2;ratioP2;P2;SDS_P1;SDS_P2;PMS_P1;PMS_P2;Temp;Humidity;BMP_temperature;BMP_pressure;BME280_temperature;BME280_humidity;BME280_pressure;Samples;Min_cycle;Max_cycle;Signal;HPM_P1;HPM_P2
2023/04/21 00:02:01;;;;;;;9.38;3.75;;;;;;;14.47;22.26;99393.31;5075152;28;20055;-66
2023/04/21 00:04:27;;;;;;;5.88;3.20;;;;;;;14.45;22.12;99392.69;5058399;28;20067;-66
2023/04/21 00:06:54;;;;;;;11.00;3.25;;;;;;;14.51;22.12;99397.28;5041951;28;20137;-66
2023/04/21 00:09:22;;;;;;;6.47;3.67;;;;;;;14.44;22.08;99391.00;5058781;28;20055;-67
2023/04/21 00:11:48;;;;;;;8.93;3.22;;;;;;;14.33;22.28;99387.00;5058228;28;20048;-67
2023/04/21 00:14:14;;;;;;;10.38;3.50;;;;;;;14.38;21.85;99386.44;5058590;28;20070;-67
2023/04/21 00:16:40;;;;;;;8.50;3.65;;;;;;;14.46;21.83;99383.66;5074989;28;20185;-67
2023/04/21 00:19:07;;;;;;;7.68;3.55;;;;;;;14.32;22.08;99384.50;5057844;28;20058;-67
2023/04/21 00:21:33;;;;;;;11.45;3.55;;;;;;;14.38;21.91;99387.25;5074514;28;20044;-67
2023/04/21 00:23:59;;;;;;;7.07;3.53;;;;;;;14.30;21.90;99382.03;5041489;28;20048;-67
2023/04/21 00:26:25;;;;;;;5.85;3.22;;;;;;;14.24;21.59;99380.09;5041423;28;20379;-67
2023/04/21 00:28:51;;;;;;;11.15;4.22;;;;;;;14.29;21.89;99382.22;5057834;28;20093;-67
2023/04/21 00:31:17;;;;;;;8.18;3.47;;;;;;;14.27;21.86;99370.91;5057908;28;20539;-66
2023/04/21 00:33:43;;;;;;;14.98;3.88;;;;;;;14.27;21.85;99378.91;5057408;28;20054;-68
2023/04/21 00:36:09;;;;;;;10.05;3.50;;;;;;;14.21;22.08;99369.75;5057961;28;20036;-67
2023/04/21 00:38:35;;;;;;;6.53;3.40;;;;;;;14.17;22.00;99367.66;5057663;28;20082;-67
2023/04/21 00:41:01;;;;;;;7.25;3.60;;;;;;;14.18;22.20;99366.63;5057194;28;20062;-67
2023/04/21 00:43:27;;;;;;;9.20;3.58;;;;;;;14.13;21.77;99356.50;5073974;28;20138;-66
2023/04/21 00:45:54;;;;;;;9.18;3.60;;;;;;;14.16;21.98;99358.00;5056650;28;20048;-67
2023/04/21 00:48:19;;;;;;;7.78;3.40;;;;;;;14.15;21.82;99353.66;5056528;28;20515;-66
2023/04/21 00:50:45;;;;;;;8.25;3.83;;;;;;;14.21;21.95;99347.56;5039868;28;20039;-67
2023/04/21 00:53:13;;;;;;;7.90;3.38;;;;;;;14.31;21.96;99353.47;5056643;28;20040;-66
2023/04/21 00:55:39;;;;;;;7.97;3.40;;;;;;;14.19;21.71;99349.63;5073594;28;20052;-67
2023/04/21 00:58:08;;;;;;;8.88;3.13;;;;;;;14.17;21.76;99355.13;5057827;28;20051;-67
2023/04/21 01:00:33;;;;;;;10.15;3.80;;;;;;;14.15;21.82;99354.50;5057330;28;20091;-67
2023/04/21 01:03:00;;;;;;;7.30;3.80;;;;;;;14.17;21.88;99360.47;5057204;28;20093;-68
2023/04/21 01:05:26;;;;;;;5.85;3.53;;;;;;;14.05;21.99;99350.47;5057315;28;20082;-68
2023/04/21 01:07:52;;;;;;;5.75;3.85;;;;;;;13.97;22.08;99351.41;5040766;28;20072;-68
2023/04/21 01:10:18;;;;;;;9.50;4.25;;;;;;;13.92;22.29;99350.28;5073763;28;20371;-68
2023/04/21 01:12:47;;;;;;;6.47;3.58;;;;;;;13.89;22.49;99342.66;5041486;28;20372;-68
2023/04/21 01:15:14;;;;;;;6.13;3.95;;;;;;;13.94;22.35;99348.25;5040712;28;20258;-67
2023/04/21 01:17:42;;;;;;;10.57;3.80;;;;;;;13.87;22.22;99345.50;5040854;28;20405;-67
2023/04/21 01:20:12;;;;;;;7.78;3.60;;;;;;;13.91;22.43;99345.97;5056956;28;20040;-68
2023/04/21 01:22:40;;;;;;;5.55;3.50;;;;;;;13.80;22.28;99344.59;5041032;28;20051;-67
2023/04/21 01:25:09;;;;;;;11.15;4.05;;;;;;;13.80;22.45;99327.75;5057202;28;20541;-67
2023/04/21 01:27:37;;;;;;;9.68;4.05;;;;;;;13.70;22.56;99338.72;5057039;28;20065;-68
2023/04/21 01:30:06;;;;;;;7.57;3.75;;;;;;;13.72;22.23;99342.03;5056735;28;20117;-67
2023/04/21 01:32:32;;;;;;;9.30;3.78;;;;;;;13.66;22.26;99331.25;5089638;28;20428;-68
2023/04/21 01:34:59;;;;;;;6.32;3.83;;;;;;;13.79;22.21;99340.28;5056669;28;20044;-67
2023/04/21 01:37:28;;;;;;;5.82;3.45;;;;;;;13.81;22.25;99337.44;5056762;28;20044;-67
2023/04/21 01:39:56;;;;;;;13.88;4.50;;;;;;;13.76;22.11;99342.50;5040219;28;20043;-67
2023/04/21 01:42:24;;;;;;;6.65;3.80;;;;;;;13.77;22.14;99346.81;5056720;28;20381;-67
2023/04/21 01:44:52;;;;;;;9.20;4.10;;;;;;;13.61;22.07;99339.81;5090136;28;20044;-66
2023/04/21 01:47:19;;;;;;;10.85;3.80;;;;;;;13.70;21.87;99343.25;5056695;28;20032;-68
2023/04/21 01:49:45;;;;;;;5.53;3.75;;;;;;;13.59;22.21;99332.00;5073307;28;20052;-67
2023/04/21 01:52:12;;;;;;;9.57;4.20;;;;;;;13.61;22.11;99333.69;5073605;28;20044;-67
2023/04/21 01:54:39;;;;;;;11.10;4.32;;;;;;;13.59;21.92;99341.88;5057033;28;20079;-67
2023/04/21 01:57:06;;;;;;;10.40;4.72;;;;;;;13.57;22.39;99341.22;5056829;28;20052;-67
2023/04/21 01:59:33;;;;;;;8.73;4.20;;;;;;;13.57;21.98;99338.53;5056984;28;20043;-67
2023/04/21 02:02:04;;;;;;;8.80;3.72;;;;;;;13.65;22.00;99316.28;5015933;28;20049;-67
2023/04/21 02:04:32;;;;;;;13.05;3.83;;;;;;;13.54;21.70;99333.56;5015822;28;20169;-67
2023/04/21 02:06:59;;;;;;;10.60;3.88;;;;;;;13.64;21.95;99334.13;4999336;28;20049;-67
2023/04/21 02:09:26;;;;;;;12.00;4.40;;;;;;;13.70;21.66;99335.22;4957358;28;20058;-67
2023/04/21 02:11:54;;;;;;;7.60;3.63;;;;;;;13.81;21.80;99343.59;4973127;28;20101;-67
2023/04/21 02:14:20;;;;;;;7.50;4.03;;;;;;;13.65;21.83;99337.63;4957472;28;20500;-67
2023/04/21 02:16:46;;;;;;;11.07;3.47;;;;;;;13.61;21.89;99345.16;4956974;28;20054;-67
2023/04/21 02:19:12;;;;;;;7.95;3.45;;;;;;;13.55;22.03;99338.72;4989606;28;20094;-68
2023/04/21 02:21:39;;;;;;;5.22;3.15;;;;;;;13.46;21.96;99329.16;4973542;28;20059;-68
2023/04/21 02:24:06;;;;;;;7.15;3.33;;;;;;;13.55;21.96;99329.88;4957076;28;20153;-69
2023/04/21 02:26:32;;;;;;;13.90;3.85;;;;;;;13.53;21.79;99339.91;4957177;28;20531;-69
2023/04/21 02:29:00;;;;;;;16.02;4.30;;;;;;;13.61;21.56;99339.00;4957332;28;20086;-68
2023/04/21 02:31:25;;;;;;;8.18;3.72;;;;;;;13.59;21.83;99337.34;4957024;28;20045;-67
2023/04/21 02:33:53;;;;;;;10.05;3.97;;;;;;;13.61;21.95;99339.00;5024749;28;20144;-67
2023/04/21 02:36:19;;;;;;;12.25;3.83;;;;;;;13.55;22.41;99330.72;4983020;28;20041;-68
2023/04/21 02:38:45;;;;;;;7.47;3.67;;;;;;;13.50;22.34;99330.44;5031725;28;20128;-68
2023/04/21 02:41:11;;;;;;;10.13;3.80;;;;;;;13.48;22.43;99335.13;5049383;28;20442;-67
2023/04/21 02:43:38;;;;;;;10.45;3.60;;;;;;;13.47;22.60;99327.31;5058520;28;20101;-67
2023/04/21 02:46:08;;;;;;;6.72;3.33;;;;;;;13.64;22.49;99333.31;5059542;28;20051;-67
2023/04/21 02:48:34;;;;;;;12.15;3.25;;;;;;;13.55;22.54;99329.88;5043044;28;20040;-66
2023/04/21 02:51:00;;;;;;;10.32;3.28;;;;;;;13.45;22.51;99330.16;5093326;28;20048;-68
2023/04/21 02:53:26;;;;;;;20.15;4.00;;;;;;;13.46;22.27;99331.00;5042976;28;20070;-68
2023/04/21 02:55:52;;;;;;;16.77;4.78;;;;;;;13.51;22.36;99334.75;5059632;28;20394;-68
2023/04/21 02:58:18;;;;;;;8.50;3.47;;;;;;;13.44;22.25;99333.84;5043015;28;20391;-67
2023/04/21 03:00:44;;;;;;;9.38;3.25;;;;;;;13.46;22.25;99326.50;5058055;28;20365;-68
2023/04/21 03:03:10;;;;;;;7.88;2.83;;;;;;;13.48;22.32;99323.66;5077485;28;20118;-68
2023/04/21 03:05:36;;;;;;;7.55;2.97;;;;;;;13.58;22.12;99333.03;5060208;28;20035;-68
2023/04/21 03:08:02;;;;;;;14.18;3.30;;;;;;;13.63;22.16;99328.97;5043807;28;20043;-68
2023/04/21 03:10:28;;;;;;;10.20;3.50;;;;;;;13.64;22.10;99333.31;5060103;28;20382;-68
2023/04/21 03:12:55;;;;;;;8.60;3.17;;;;;;;13.67;22.35;99338.28;5060637;28;20080;-68
2023/04/21 03:15:23;;;;;;;9.02;3.50;;;;;;;13.73;22.38;99337.53;5044264;28;20036;-67
2023/04/21 03:17:49;;;;;;;10.98;3.22;;;;;;;13.76;22.32;99337.97;5060110;28;20048;-68
2023/04/21 03:20:14;;;;;;;11.65;3.28;;;;;;;13.73;22.26;99350.88;5060159;28;20482;-70
2023/04/21 03:22:40;;;;;;;8.23;3.45;;;;;;;13.76;22.57;99348.63;5060613;28;20047;-73
2023/04/21 03:25:07;;;;;;;14.18;3.28;;;;;;;13.80;22.49;99333.09;5060119;28;20134;-74
2023/04/21 03:27:34;;;;;;;8.93;3.15;;;;;;;13.90;22.50;99345.13;5059887;28;20056;-74
2023/04/21 03:29:59;;;;;;;11.30;3.20;;;;;;;13.84;22.66;99334.41;5093183;28;20189;-71
2023/04/21 03:32:25;;;;;;;16.77;3.63;;;;;;;13.90;22.60;99347.00;5059666;28;20138;-72
2023/04/21 03:34:52;;;;;;;9.88;3.25;;;;;;;13.95;22.57;99337.41;5059826;28;20039;-74
2023/04/21 03:37:28;;;;;;;6.43;3.03;;;;;;;14.19;22.50;99344.28;5043485;28;20177;-72
2023/04/21 03:40:20;;;;;;;8.45;3.10;;;;;;;14.04;22.53;99343.47;5052870;28;20059;-70
2023/04/21 03:42:50;;;;;;;12.23;3.53;;;;;;;14.12;22.55;99338.00;5051602;28;20048;-72
2023/04/21 03:45:18;;;;;;;5.88;2.70;;;;;;;14.16;22.47;99344.66;5052153;28;20110;-71
2023/04/21 03:47:44;;;;;;;13.27;2.95;;;;;;;14.23;22.75;99343.69;5035683;28;20053;-70
2023/04/21 03:50:09;;;;;;;13.02;3.50;;;;;;;14.28;22.58;99344.00;5035058;28;20159;-72
2023/04/21 03:52:35;;;;;;;9.63;2.85;;;;;;;14.32;22.19;99339.09;5018454;28;20053;-69
2023/04/21 03:55:01;;;;;;;10.88;3.00;;;;;;;14.41;22.45;99348.63;5017315;28;20056;-74
2023/04/21 03:57:29;;;;;;;16.80;3.70;;;;;;;14.46;22.20;99352.41;5016700;28;20092;-74
2023/04/21 03:59:55;;;;;;;14.25;4.43;;;;;;;14.54;22.30;99352.31;4998263;28;20049;-74
2023/04/21 04:02:21;;;;;;;14.55;4.25;;;;;;;14.65;22.32;99350.97;4998484;28;20128;-73
2023/04/21 04:04:47;;;;;;;18.70;3.78;;;;;;;14.57;22.48;99330.53;4997753;28;20056;-72
2023/04/21 04:07:13;;;;;;;18.02;2.83;;;;;;;14.66;21.91;99342.75;4980093;28;20361;-75
2023/04/21 04:09:39;;;;;;;14.25;2.75;;;;;;;14.78;21.98;99345.72;4980456;28;20071;-75
2023/04/21 04:12:05;;;;;;;14.30;2.88;;;;;;;14.86;21.89;99346.44;4980359;28;20041;-74
2023/04/21 04:14:31;;;;;;;17.42;3.38;;;;;;;14.95;21.74;99341.78;5026693;28;20059;-76
2023/04/21 04:16:58;;;;;;;18.95;2.78;;;;;;;15.09;21.91;99346.22;4982012;28;20140;-75
2023/04/21 04:19:30;;;;;;;13.20;2.80;;;;;;;15.29;21.64;99344.53;5014938;28;20069;-74
2023/04/21 04:21:58;;;;;;;14.63;2.80;;;;;;;15.30;21.35;99340.81;4998702;28;20080;-76
2023/04/21 04:24:25;;;;;;;9.70;2.70;;;;;;;15.33;21.25;99345.78;5014917;28;20468;-76
2023/04/21 04:26:56;;;;;;;13.90;5.38;;;;;;;15.32;20.98;99341.44;4978906;28;20447;-76
2023/04/21 04:29:22;;;;;;;14.57;3.95;;;;;;;15.39;21.14;99346.88;4979752;28;20064;-76
2023/04/21 04:31:49;;;;;;;11.55;3.95;;;;;;;15.37;21.39;99325.63;4962989;28;20373;-75
2023/04/21 04:34:16;;;;;;;11.20;3.20;;;;;;;15.56;20.67;99349.03;4940519;28;20053;-76
2023/04/21 04:36:43;;;;;;;13.93;3.47;;;;;;;15.57;20.72;99350.72;4940284;28;20504;-76
2023/04/21 04:39:09;;;;;;;14.10;3.38;;;;;;;15.63;20.72;99344.56;4940915;28;20046;-77
2023/04/21 04:41:36;;;;;;;7.57;2.55;;;;;;;15.74;20.51;99329.81;4936835;29;20538;-76
2023/04/21 04:44:03;;;;;;;12.80;2.88;;;;;;;15.79;20.42;99336.19;4936841;29;20092;-76
2023/04/21 04:46:31;;;;;;;10.35;3.70;;;;;;;15.99;20.61;99342.47;4921059;29;20537;-75
2023/04/21 04:48:57;;;;;;;18.35;3.17;;;;;;;15.95;20.61;99335.03;4972434;28;20225;-75
2023/04/21 04:51:23;;;;;;;12.30;3.10;;;;;;;16.00;20.28;99333.44;4959345;28;20121;-75
2023/04/21 04:53:49;;;;;;;8.55;2.40;;;;;;;16.03;20.50;99337.56;4958867;28;20440;-74
2023/04/21 04:56:15;;;;;;;9.38;2.63;;;;;;;16.10;20.05;99333.88;4959296;28;20046;-76
2023/04/21 04:58:45;;;;;;;18.52;2.97;;;;;;;16.19;20.00;99327.31;4992521;28;20049;-76
2023/04/21 05:01:15;;;;;;;7.20;2.97;;;;;;;16.41;20.15;99326.13;4980386;28;20041;-74
2023/04/21 05:03:42;;;;;;;9.37;3.07;;;;;;;16.41;20.27;99322.63;5011557;28;20056;-74
2023/04/21 05:06:08;;;;;;;10.32;2.65;;;;;;;16.46;20.05;99330.91;5014360;28;20378;-75
2023/04/21 05:08:34;;;;;;;9.50;2.70;;;;;;;16.54;20.10;99334.22;5035491;28;20134;-75
2023/04/21 05:11:00;;;;;;;15.50;3.05;;;;;;;16.63;19.77;99333.03;5036960;28;20048;-75
2023/04/21 05:13:26;;;;;;;14.25;2.80;;;;;;;16.76;19.81;99332.19;5037088;28;20064;-75
2023/04/21 05:16:01;;;;;;;15.38;3.03;;;;;;;17.00;19.79;99320.03;5053806;28;20132;-74
2023/04/21 05:18:27;;;;;;;17.27;2.70;;;;;;;16.90;19.27;99323.13;5039844;28;20143;-75
2023/04/21 05:20:53;;;;;;;11.60;3.00;;;;;;;17.02;19.28;99320.69;5021636;28;20074;-74
2023/04/21 05:23:19;;;;;;;16.52;3.30;;;;;;;17.11;19.37;99325.63;5037951;28;20462;-75
2023/04/21 05:25:45;;;;;;;14.23;3.53;;;;;;;17.23;19.53;99320.44;5054952;28;20044;-75
2023/04/21 05:28:11;;;;;;;17.20;3.00;;;;;;;17.29;19.21;99322.28;5037723;28;20044;-75
2023/04/21 05:30:37;;;;;;;13.18;3.10;;;;;;;17.36;19.15;99323.94;5038041;28;20086;-76
2023/04/21 05:33:03;;;;;;;14.60;3.38;;;;;;;17.49;19.21;99325.81;5021411;28;20044;-76
2023/04/21 05:35:32;;;;;;;6.97;3.17;;;;;;;17.75;19.10;99337.31;5054250;28;20118;-75
2023/04/21 05:37:58;;;;;;;9.30;2.67;;;;;;;17.65;18.89;99333.44;5037739;28;20147;-75
2023/04/21 05:40:24;;;;;;;17.27;3.25;;;;;;;17.86;19.09;99327.78;5021014;28;20127;-75
2023/04/21 05:42:50;;;;;;;18.83;3.65;;;;;;;17.90;18.84;99329.84;5038097;28;20474;-76
2023/04/21 05:45:16;;;;;;;17.92;3.30;;;;;;;17.99;18.67;99325.88;5037903;28;20054;-75
2023/04/21 05:47:42;;;;;;;13.98;3.50;;;;;;;18.04;18.46;99317.16;5021226;28;20041;-75
2023/04/21 05:50:08;;;;;;;14.50;3.03;;;;;;;18.11;18.44;99315.28;5037593;28;20143;-76
2023/04/21 05:52:36;;;;;;;11.43;3.50;;;;;;;18.16;18.16;99318.13;5005104;28;20072;-76
2023/04/21 05:55:02;;;;;;;16.60;3.58;;;;;;;18.29;18.27;99318.91;5037912;28;20447;-75
2023/04/21 05:57:30;;;;;;;16.17;3.22;;;;;;;18.31;18.31;99314.13;5038214;28;20076;-75
2023/04/21 05:59:56;;;;;;;14.75;3.13;;;;;;;18.38;18.18;99312.28;5037861;28;20094;-75
2023/04/21 06:02:23;;;;;;;24.65;3.25;;;;;;;18.51;17.93;99313.22;5021215;28;20056;-75
2023/04/21 06:04:48;;;;;;;16.75;3.10;;;;;;;18.65;18.17;99314.81;5037879;28;20051;-74
2023/04/21 06:07:16;;;;;;;11.40;2.80;;;;;;;18.77;17.84;99321.97;5037285;28;20466;-72
2023/04/21 06:09:42;;;;;;;13.73;2.72;;;;;;;18.83;17.63;99317.56;5022117;28;20041;-74
2023/04/21 06:12:08;;;;;;;17.60;3.08;;;;;;;18.84;17.58;99319.19;5021266;28;20050;-75
2023/04/21 06:14:34;;;;;;;13.45;3.28;;;;;;;18.91;17.22;99322.69;5037375;28;20044;-74
2023/04/21 06:16:59;;;;;;;18.85;2.80;;;;;;;19.03;17.54;99323.63;5037097;28;20053;-74
2023/04/21 06:19:25;;;;;;;18.58;3.05;;;;;;;19.17;17.60;99317.06;5040788;28;20063;-74
2023/04/21 06:21:51;;;;;;;28.77;3.13;;;;;;;19.25;17.87;99314.91;5058806;28;20040;-74
2023/04/21 06:24:24;;;;;;;12.73;2.95;;;;;;;19.43;17.55;99311.47;5027098;28;20439;-74
2023/04/21 06:26:53;;;;;;;16.15;3.00;;;;;;;19.71;17.41;99309.91;5029133;28;20110;-73
2023/04/21 06:29:19;;;;;;;21.92;2.95;;;;;;;19.63;17.20;99306.72;5043264;28;20083;-74
2023/04/21 06:31:46;;;;;;;10.23;2.50;;;;;;;19.62;16.88;99305.88;5025904;28;20041;-75
2023/04/21 06:34:12;;;;;;;14.55;2.40;;;;;;;19.72;16.64;99305.34;5041250;28;20055;-74
2023/04/21 06:36:39;;;;;;;13.85;2.63;;;;;;;19.80;16.83;99305.88;5041195;28;20052;-75
2023/04/21 06:39:05;;;;;;;16.38;2.33;;;;;;;19.96;16.67;99299.03;5041135;28;20044;-74
2023/04/21 06:41:31;;;;;;;13.23;2.35;;;;;;;19.91;16.46;99296.22;5040972;28;20063;-75
2023/04/21 06:43:57;;;;;;;18.80;2.67;;;;;;;19.97;16.47;99298.81;5024804;28;20446;-74
2023/04/21 06:46:23;;;;;;;11.77;2.25;;;;;;;19.99;16.73;99294.03;5024695;28;20047;-74
2023/04/21 06:48:48;;;;;;;14.45;2.28;;;;;;;20.13;16.52;99300.09;5040806;28;20041;-75
2023/04/21 06:51:14;;;;;;;9.00;2.20;;;;;;;20.23;16.23;99296.88;5057437;28;20519;-74
2023/04/21 06:53:40;;;;;;;7.45;2.00;;;;;;;20.45;16.25;99295.34;5024401;28;20036;-75
2023/04/21 06:56:06;;;;;;;8.45;2.03;;;;;;;20.56;16.19;99303.44;5024285;28;20036;-75
2023/04/21 06:58:32;;;;;;;14.88;2.10;;;;;;;20.77;16.10;99304.81;5024178;28;20142;-74
2023/04/21 07:00:57;;;;;;;8.93;2.25;;;;;;;20.88;15.90;99306.72;5024246;28;20036;-75
2023/04/21 07:03:25;;;;;;;14.55;1.85;;;;;;;21.01;15.64;99301.94;5057612;28;20459;-75
2023/04/21 07:05:51;;;;;;;7.93;1.88;;;;;;;21.18;15.49;99302.91;5020074;28;20136;-75
2023/04/21 07:08:17;;;;;;;10.23;2.20;;;;;;;21.16;15.12;99291.50;5019684;28;20064;-74
2023/04/21 07:10:43;;;;;;;12.68;1.80;;;;;;;21.40;15.05;99290.44;5019742;28;20057;-75
2023/04/21 07:13:10;;;;;;;11.85;2.13;;;;;;;21.74;14.98;99286.06;5020514;28;20051;-73
2023/04/21 07:15:37;;;;;;;13.75;2.45;;;;;;;21.96;14.85;99286.28;5003669;28;20493;-74
2023/04/21 07:18:03;;;;;;;12.07;3.65;;;;;;;22.18;14.82;99288.09;5019489;28;20083;-75
2023/04/21 07:20:30;;;;;;;19.10;4.70;;;;;;;22.53;14.61;99280.66;5019783;28;20067;-74
2023/04/21 07:22:56;;;;;;;11.60;3.20;;;;;;;22.75;14.10;99280.78;5035996;28;20041;-73
2023/04/21 07:25:23;;;;;;;13.85;3.13;;;;;;;23.21;13.52;99286.69;5019421;28;20356;-74
2023/04/21 07:27:49;;;;;;;10.15;2.70;;;;;;;23.61;12.90;99282.94;5003129;28;20056;-75
2023/04/21 07:30:17;;;;;;;7.65;2.78;;;;;;;24.49;12.70;99291.66;5001750;28;20515;-75
2023/04/21 07:32:46;;;;;;;13.43;2.70;;;;;;;26.12;11.87;99286.09;5036222;28;20043;-75
2023/04/21 07:35:11;;;;;;;10.52;2.10;;;;;;;28.51;10.48;99280.72;5036037;28;20087;-75
2023/04/21 07:37:39;;;;;;;5.05;1.95;;;;;;;31.38;8.65;99289.16;5037045;28;20083;-76
2023/04/21 07:40:08;;;;;;;14.15;2.15;;;;;;;34.28;7.11;99278.69;5057379;28;20055;-76
2023/04/21 07:42:34;;;;;;;15.77;2.70;;;;;;;36.38;6.29;99283.69;5056059;28;20040;-75
2023/04/21 07:45:01;;;;;;;9.13;2.30;;;;;;;38.21;4.77;99267.00;5072329;28;20348;-75
2023/04/21 07:47:31;;;;;;;13.05;2.58;;;;;;;39.85;4.16;99261.03;5056849;28;20059;-75
2023/04/21 07:49:57;;;;;;;11.32;2.65;;;;;;;40.72;3.77;99247.59;5056484;28;20040;-73
2023/04/21 07:52:23;;;;;;;9.40;2.10;;;;;;;41.36;3.31;99251.28;5040095;28;20079;-75
2023/04/21 07:54:49;;;;;;;11.38;1.67;;;;;;;42.09;3.02;99261.31;5039852;28;20071;-75
2023/04/21 07:57:15;;;;;;;8.52;1.80;;;;;;;42.74;2.54;99252.31;5023034;28;20041;-75
2023/04/21 07:59:41;;;;;;;5.07;1.67;;;;;;;43.59;2.49;99245.72;5039464;28;20051;-74
2023/04/21 08:02:07;;;;;;;10.68;1.55;;;;;;;44.50;2.49;99237.19;5022856;28;20554;-77
2023/04/21 08:04:33;;;;;;;9.02;1.58;;;;;;;45.30;1.74;99244.34;5006708;28;20040;-75
2023/04/21 08:06:59;;;;;;;13.93;2.08;;;;;;;45.99;1.44;99240.81;5056049;28;20447;-75
2023/04/21 08:09:26;;;;;;;8.68;1.38;;;;;;;46.67;1.12;99242.25;5022915;28;20066;-75
2023/04/21 08:11:53;;;;;;;13.73;1.50;;;;;;;47.23;1.03;99244.84;5056094;28;20474;-77
2023/04/21 08:14:20;;;;;;;12.13;1.48;;;;;;;47.76;1.10;99246.50;5039301;28;20041;-76
2023/04/21 08:16:46;;;;;;;6.53;1.50;;;;;;;48.17;0.90;99245.31;5038994;28;20084;-76
2023/04/21 08:19:12;;;;;;;3.33;1.10;;;;;;;48.53;0.60;99234.47;5038836;28;20048;-75
2023/04/21 08:21:38;;;;;;;10.27;1.40;;;;;;;48.88;0.23;99234.84;5018107;28;20053;-75
2023/04/21 08:24:04;;;;;;;11.48;2.28;;;;;;;49.30;0.56;99227.03;5001732;28;20636;-75
2023/04/21 08:26:32;;;;;;;11.23;1.33;;;;;;;49.33;0.25;99227.00;5018401;28;20045;-75
2023/04/21 08:28:59;;;;;;;9.88;1.42;;;;;;;49.69;0.33;99222.38;5001894;28;20475;-74
2023/04/21 08:31:26;;;;;;;8.95;1.20;;;;;;;49.23;0.43;99213.81;5018089;28;20049;-74
2023/04/21 08:33:53;;;;;;;10.30;1.63;;;;;;;49.30;0.00;99208.06;5018069;28;20049;-76
2023/04/21 08:36:19;;;;;;;5.07;1.50;;;;;;;49.08;0.18;99218.88;4978375;28;20045;-76
2023/04/21 08:38:45;;;;;;;10.40;1.52;;;;;;;49.34;0.00;99208.03;4978479;28;20527;-75
2023/04/21 08:41:12;;;;;;;7.00;1.60;;;;;;;49.63;0.30;99198.66;5010767;28;20061;-75
2023/04/21 08:43:38;;;;;;;6.13;1.30;;;;;;;50.08;0.40;99190.63;4994713;28;20045;-76
2023/04/21 08:46:06;;;;;;;8.57;1.30;;;;;;;49.79;0.00;99184.69;4946612;28;20436;-75
2023/04/21 08:48:36;;;;;;;12.73;1.40;;;;;;;49.72;0.00;99172.69;4946537;28;20042;-74
2023/04/21 08:51:02;;;;;;;16.73;1.40;;;;;;;49.21;0.17;99178.78;4946463;28;20524;-73
2023/04/21 08:53:28;;;;;;;19.20;1.58;;;;;;;49.55;0.25;99180.25;5011790;28;20053;-76
2023/04/21 08:55:57;;;;;;;7.97;1.40;;;;;;;49.93;0.00;99180.81;4997865;28;20471;-76
2023/04/21 08:58:23;;;;;;;6.82;1.73;;;;;;;50.52;0.00;99168.34;5014001;28;20044;-76
2023/04/21 09:00:49;;;;;;;13.55;1.77;;;;;;;50.94;0.00;99163.78;5030571;28;20037;-76
2023/04/21 09:03:24;;;;;;;15.05;1.95;;;;;;;51.03;0.00;99157.53;5030447;28;20045;-75
2023/04/21 09:06:01;;;;;;;13.98;1.60;;;;;;;51.00;0.13;99155.59;4998371;28;20041;-76
2023/04/21 09:08:29;;;;;;;33.10;2.20;;;;;;;50.95;0.00;99161.75;5070536;28;20048;-75
2023/04/21 09:10:55;;;;;;;6.22;1.42;;;;;;;51.21;0.00;99153.03;5038796;28;20048;-76
2023/04/21 09:13:29;;;;;;;5.38;1.27;;;;;;;51.70;0.00;99148.22;5054707;28;20390;-76
2023/04/21 09:15:54;;;;;;;8.43;1.50;;;;;;;52.05;0.00;99144.41;5038185;28;20075;-76
2023/04/21 09:18:23;;;;;;;13.75;1.60;;;;;;;52.02;0.00;99144.50;5037800;28;20084;-76
2023/04/21 09:21:04;;;;;;;8.05;1.15;;;;;;;52.25;0.00;99142.22;5038162;28;20048;-75
2023/04/21 09:23:35;;;;;;;9.20;2.10;;;;;;;52.28;0.00;99138.47;5038490;28;20056;-75
2023/04/21 09:26:02;;;;;;;3.38;1.50;;;;;;;52.18;0.00;99136.72;5021874;28;20044;-75
2023/04/21 09:28:31;;;;;;;5.22;2.00;;;;;;;52.31;0.00;99131.94;5037991;28;20466;-75
2023/04/21 09:30:56;;;;;;;13.20;2.30;;;;;;;52.26;0.00;99137.31;5054579;28;20052;-75
2023/04/21 09:33:22;;;;;;;13.63;1.50;;;;;;;51.88;0.00;99120.97;5021506;28;20040;-76
2023/04/21 09:35:48;;;;;;;7.68;1.30;;;;;;;51.47;0.00;99128.56;5055267;28;20044;-75
2023/04/21 09:38:15;;;;;;;20.50;1.75;;;;;;;51.50;0.00;99119.97;5021651;28;20110;-75
2023/04/21 09:40:41;;;;;;;10.38;1.50;;;;;;;51.74;0.00;99117.72;5054994;28;20397;-75
2023/04/21 09:43:09;;;;;;;13.05;1.67;;;;;;;52.29;0.00;99114.53;5021326;28;20071;-76
2023/04/21 09:45:37;;;;;;;9.95;1.67;;;;;;;51.91;0.00;99110.78;5054471;28;20083;-74
2023/04/21 09:48:04;;;;;;;16.50;2.10;;;;;;;51.54;0.00;99102.88;5054508;28;20451;-76
2023/04/21 09:50:32;;;;;;;5.72;1.20;;;;;;;51.43;0.00;99105.19;5037821;28;20135;-75
2023/04/21 09:52:59;;;;;;;4.55;1.58;;;;;;;50.98;0.00;99115.59;5053494;28;20060;-76
2023/04/21 09:55:27;;;;;;;6.40;1.80;;;;;;;50.82;0.00;99098.59;5037535;28;20037;-75
2023/04/21 09:57:59;;;;;;;7.07;1.30;;;;;;;50.73;0.20;99092.75;5037660;28;20040;-75
2023/04/21 10:00:30;;;;;;;17.27;1.60;;;;;;;50.34;0.25;99100.06;5021270;28;20044;-75
2023/04/21 10:02:57;;;;;;;7.15;1.25;;;;;;;50.61;0.00;99096.25;5071167;28;20052;-77
2023/04/21 10:05:23;;;;;;;5.63;1.30;;;;;;;50.84;0.29;99082.00;5054323;28;20106;-76
2023/04/21 10:07:49;;;;;;;6.32;1.52;;;;;;;50.93;0.16;99094.28;5054085;28;20049;-73
2023/04/21 10:10:22;;;;;;;19.50;2.00;;;;;;;51.38;0.10;99083.88;5037670;28;20051;-76
2023/04/21 10:12:50;;;;;;;10.20;2.00;;;;;;;51.58;0.00;99078.88;5037598;28;20049;-77
2023/04/21 10:15:32;;;;;;;9.13;1.85;;;;;;;51.76;0.09;99078.44;5037833;28;20474;-76
2023/04/21 10:18:22;;;;;;;12.35;1.80;;;;;;;51.43;0.02;99063.53;5020848;28;20053;-77
2023/04/21 10:20:53;;;;;;;19.67;1.70;;;;;;;51.09;0.00;99068.84;5054117;28;20101;-76
2023/04/21 10:23:27;;;;;;;3.33;1.17;;;;;;;51.08;0.00;99072.13;5037628;28;20040;-76
2023/04/21 10:26:05;;;;;;;6.75;1.40;;;;;;;50.76;0.14;99063.59;5037243;28;20044;-77
2023/04/21 10:28:48;;;;;;;5.03;1.27;;;;;;;51.08;0.00;99055.94;5053423;28;20040;-76
2023/04/21 10:31:19;;;;;;;7.10;1.33;;;;;;;51.43;0.12;99048.56;5037944;28;20045;-76
2023/04/21 10:34:04;;;;;;;11.85;1.40;;;;;;;51.86;0.07;99049.78;5053320;28;20359;-75
2023/04/21 10:36:31;;;;;;;11.02;1.40;;;;;;;52.04;0.00;99052.09;5036660;28;20044;-75
2023/04/21 10:39:02;;;;;;;6.32;1.23;;;;;;;52.14;0.00;99038.88;5036517;28;20048;-76
2023/04/21 10:41:30;;;;;;;9.52;1.35;;;;;;;52.05;0.00;99035.91;5036826;28;20044;-75
2023/04/21 10:44:11;;;;;;;12.70;1.45;;;;;;;52.02;0.00;99040.44;5036609;28;20417;-76
2023/04/21 10:46:45;;;;;;;14.27;1.73;;;;;;;51.74;0.00;99046.91;5020328;28;20360;-74
2023/04/21 10:49:16;;;;;;;13.30;1.42;;;;;;;51.34;0.00;99054.88;5036693;28;20040;-76
2023/04/21 10:52:02;;;;;;;10.45;1.60;;;;;;;50.36;0.00;99040.28;5020084;28;20041;-76
2023/04/21 10:54:32;;;;;;;8.05;1.20;;;;;;;49.54;0.00;99033.84;5036881;28;20045;-77
2023/04/21 10:57:00;;;;;;;12.00;1.60;;;;;;;48.87;0.22;99032.97;5053405;28;20040;-76
2023/04/21 10:59:26;;;;;;;8.25;1.85;;;;;;;48.82;0.16;99032.69;5020632;28;20482;-76
2023/04/21 11:01:52;;;;;;;6.45;2.00;;;;;;;48.78;0.54;99029.91;5020481;28;20037;-75
2023/04/21 11:04:19;;;;;;;9.30;1.95;;;;;;;48.61;0.38;99018.91;5054842;28;20067;-76
2023/04/21 11:07:05;;;;;;;8.10;1.50;;;;;;;48.02;0.93;99017.72;5023879;28;20552;-76
2023/04/21 11:09:31;;;;;;;7.63;1.58;;;;;;;47.45;0.98;99021.16;5024212;28;20094;-75
2023/04/21 11:12:00;;;;;;;9.10;2.40;;;;;;;47.38;1.00;99012.78;5057158;28;20569;-75
2023/04/21 11:14:25;;;;;;;10.48;2.10;;;;;;;46.99;1.03;99012.34;5023848;28;20048;-75
2023/04/21 11:16:51;;;;;;;6.47;2.15;;;;;;;46.89;1.09;99010.41;5039820;28;20083;-76
2023/04/21 11:19:24;;;;;;;11.38;1.60;;;;;;;46.01;1.10;99007.34;5040104;28;20044;-75
2023/04/21 11:21:50;;;;;;;5.25;1.63;;;;;;;44.21;2.04;98994.59;5024201;28;20063;-75
2023/04/21 11:24:16;;;;;;;13.82;1.70;;;;;;;42.44;2.52;99000.13;5040243;28;20056;-75
2023/04/21 11:26:43;;;;;;;8.55;1.60;;;;;;;40.51;2.93;98994.53;5040136;28;20114;-76
2023/04/21 11:29:10;;;;;;;7.50;1.60;;;;;;;38.92;3.52;98977.53;5040152;28;20135;-72
2023/04/21 11:31:39;;;;;;;3.28;1.60;;;;;;;37.41;4.41;98974.13;5040418;28;20048;-75
2023/04/21 11:34:06;;;;;;;9.63;2.40;;;;;;;35.81;5.26;98953.56;5040141;28;20037;-75